Etusivu
METAR-TAF:

METAR-TAF

Lentoasemat :

Ørland, Norja

Leveyspiiri: 63-42N, Pituuspiiri: 009-36E, korkeus merenpinnasta: 0 m

Tämänhetkinen sää

Tämä raportti tehtiin 25 minuuttia sitten, kello 23.50 UTC
Tuuli 5 kn idästä
Lämpötila 8°C
Kosteus 76%
Ilmanpaine 1012 hPa
Näkyvyys 10 km tai enemmän
Muutamia pilviä 2500 ft:n korkeudessa

METAR: ENOL 282350Z 08005KT 9999 FEW025 08/04 Q1012

Aika: 02:15 (00:15 UTC)

Sääennuste

Ennuste voimassa 29. päivästä klo 00 UTC - 29. päivään klo 24 UTC
Tuuli 5 kn eri suunnista
Näkyvyys 10 km tai enemmän
Muutamia pilviä 3000 ft:n korkeudessa
Ajoittain
29. päivästä klo 09 UTC - 29. päivään klo 15 UTC
Tuuli 15 kn pohjoisesta

TAF: ENOL 2900/2924 VRB05KT 9999 FEW030 TEMPO 2909/2915 01015KT

Säähavainnot ja -ennusteet yli 4000 lentoasemalta (METAR- ja TAF-raportit).

Käytössä olevat sääasemat on merkitty karttaan keltaisilla ja punaisilla pisteillä.

Aseta hiiri pisteen päälle nähdäksesi sääaseman nimen.

Klikkaa sitten nähdäksesi säähavainnot ja -ennusteet.

Kartan vaihtaminen: klikkaa mustalla rastilla varustettuja vihreitä pisteitä, niin voit zoomata sisään; viivalla varustettua vihreää pistettä, niin voit zoomata ulos tai vihreitä nuolia, niin pääset viereisille kartoille.


METAR-TAF: